createdAt,value
2019-02-09T00:02:11.990Z,5.22
2019-02-09T00:04:42.893Z,5.35
2019-02-09T00:07:13.989Z,5.31
2019-02-09T00:09:44.893Z,5.27
2019-02-09T00:12:15.966Z,5.33
2019-02-09T00:14:46.854Z,5.27
2019-02-09T00:17:19.290Z,5.27
2019-02-09T00:19:50.165Z,5.39
2019-02-09T00:22:21.237Z,5.58
2019-02-09T00:24:52.253Z,5.66
2019-02-09T00:27:23.271Z,5.66
2019-02-09T00:29:54.326Z,5.70
2019-02-09T00:32:25.338Z,5.56
2019-02-09T00:34:56.129Z,5.73
2019-02-09T00:37:27.098Z,5.79
2019-02-09T00:39:57.885Z,5.83
2019-02-09T00:42:28.930Z,6.09
2019-02-09T00:44:59.460Z,6.17
2019-02-09T00:47:30.358Z,6.41
2019-02-09T00:50:01.222Z,6.51
2019-02-09T00:52:32.225Z,6.57
2019-02-09T00:55:03.212Z,6.56
2019-02-09T00:57:34.205Z,6.61
2019-02-09T01:00:10.733Z,6.68
2019-02-09T01:02:42.008Z,6.76
2019-02-09T01:05:13.632Z,6.80
2019-02-09T01:07:44.621Z,6.69
2019-02-09T01:10:16.413Z,6.79
2019-02-09T01:12:47.421Z,6.82
2019-02-09T01:15:18.696Z,6.90
2019-02-09T01:17:49.886Z,6.80
2019-02-09T01:20:22.740Z,6.87
2019-02-09T01:22:54.049Z,6.99
2019-02-09T01:25:25.136Z,7.06
2019-02-09T01:27:56.422Z,6.80
2019-02-09T01:30:27.418Z,6.45
2019-02-09T01:32:58.728Z,6.23
2019-02-09T01:35:29.596Z,6.33
2019-02-09T01:38:00.581Z,6.70
2019-02-09T01:40:31.488Z,6.98
2019-02-09T01:43:02.569Z,7.41
2019-02-09T01:45:33.670Z,7.61
2019-02-09T01:48:05.184Z,7.63
2019-02-09T01:50:36.241Z,7.66
2019-02-09T01:53:07.498Z,7.63
2019-02-09T01:55:38.341Z,7.60
2019-02-09T01:58:09.346Z,7.66
2019-02-09T02:00:41.418Z,7.68
2019-02-09T02:03:12.513Z,7.79
2019-02-09T02:05:43.717Z,8.00
2019-02-09T02:08:18.274Z,8.02
2019-02-09T02:10:49.395Z,8.13
2019-02-09T02:13:20.397Z,8.10
2019-02-09T02:15:51.266Z,8.06
2019-02-09T02:18:22.541Z,8.12
2019-02-09T02:20:53.453Z,8.28
2019-02-09T02:23:25.364Z,8.32
2019-02-09T02:25:56.151Z,8.26
2019-02-09T02:28:27.133Z,8.32
2019-02-09T02:30:58.042Z,8.42
2019-02-09T02:33:28.928Z,8.35
2019-02-09T02:35:59.837Z,8.41
2019-02-09T02:38:30.685Z,8.31
2019-02-09T02:41:01.573Z,8.27
2019-02-09T02:43:32.505Z,8.19
2019-02-09T02:46:03.464Z,8.15
2019-02-09T02:48:34.459Z,8.30
2019-02-09T02:51:05.741Z,8.15
2019-02-09T02:53:37.448Z,8.20
2019-02-09T02:56:08.359Z,8.26
2019-02-09T02:58:39.226Z,8.29
2019-02-09T03:01:10.003Z,8.28
2019-02-09T03:03:40.999Z,8.29
2019-02-09T03:06:11.904Z,8.25
2019-02-09T03:08:42.801Z,8.07
2019-02-09T03:11:13.771Z,8.01
2019-02-09T03:13:45.902Z,8.00
2019-02-09T03:16:16.769Z,7.97
2019-02-09T03:18:48.021Z,7.87
2019-02-09T03:21:19.069Z,7.82
2019-02-09T03:23:50.000Z,7.74
2019-02-09T03:26:20.942Z,7.63
2019-02-09T03:28:51.922Z,7.58
2019-02-09T03:31:24.757Z,7.53
2019-02-09T03:33:55.653Z,7.47
2019-02-09T03:36:26.539Z,7.42
2019-02-09T03:38:57.421Z,7.46
2019-02-09T03:41:28.298Z,7.43
2019-02-09T03:43:59.267Z,7.39
2019-02-09T03:46:30.196Z,7.34
2019-02-09T03:49:01.481Z,7.34
2019-02-09T03:51:32.564Z,7.35
2019-02-09T03:54:03.743Z,7.34
2019-02-09T03:56:34.650Z,7.26
2019-02-09T03:59:05.736Z,7.21
2019-02-09T04:01:37.670Z,7.23
2019-02-09T04:04:08.857Z,7.19
2019-02-09T04:06:39.749Z,7.24
2019-02-09T04:09:11.768Z,7.17
2019-02-09T04:11:42.653Z,7.17
2019-02-09T04:14:13.626Z,7.14
2019-02-09T04:16:44.512Z,7.16
2019-02-09T04:19:15.865Z,7.20
2019-02-09T04:21:47.391Z,7.25
2019-02-09T04:24:18.346Z,7.29
2019-02-09T04:26:49.206Z,7.32
2019-02-09T04:29:20.494Z,7.42
2019-02-09T04:31:51.269Z,7.43
2019-02-09T04:34:22.644Z,7.40
2019-02-09T04:36:53.571Z,7.47
2019-02-09T04:39:24.547Z,7.47
2019-02-09T04:41:55.332Z,7.52
2019-02-09T04:44:28.512Z,7.52
2019-02-09T04:46:59.373Z,7.49
2019-02-09T04:49:30.414Z,7.66
2019-02-09T04:52:01.338Z,7.74
2019-02-09T04:54:32.442Z,7.72
2019-02-09T04:57:03.429Z,7.76
2019-02-09T04:59:34.501Z,7.80
2019-02-09T05:02:05.604Z,7.81
2019-02-09T05:04:36.895Z,7.90
2019-02-09T05:07:07.924Z,7.92
2019-02-09T05:09:38.805Z,7.96
2019-02-09T05:12:09.668Z,7.92
2019-02-09T05:14:40.477Z,7.97
2019-02-09T05:17:11.244Z,7.93
2019-02-09T05:19:42.310Z,7.99
2019-02-09T05:22:13.135Z,7.88
2019-02-09T05:24:44.290Z,7.76
2019-02-09T05:27:15.215Z,7.66
2019-02-09T05:29:46.289Z,7.60
2019-02-09T05:32:17.090Z,7.57
2019-02-09T05:34:47.973Z,7.59
2019-02-09T05:37:18.744Z,7.67
2019-02-09T05:39:49.902Z,7.67
2019-02-09T05:42:20.648Z,7.67
2019-02-09T05:44:51.541Z,7.83
2019-02-09T05:47:22.521Z,7.92
2019-02-09T05:49:53.785Z,8.16
2019-02-09T05:52:24.597Z,8.11
2019-02-09T05:54:55.994Z,8.14
2019-02-09T05:57:26.778Z,8.21
2019-02-09T05:59:57.763Z,8.14
2019-02-09T06:02:28.641Z,8.32
2019-02-09T06:04:59.647Z,8.31
2019-02-09T06:07:30.545Z,8.35
2019-02-09T06:10:01.528Z,8.42
2019-02-09T06:12:32.302Z,8.63
2019-02-09T06:15:03.577Z,8.70
2019-02-09T06:17:34.503Z,8.83
2019-02-09T06:20:06.704Z,8.89
2019-02-09T06:22:37.609Z,8.87
2019-02-09T06:25:08.834Z,8.95
2019-02-09T06:27:39.773Z,8.90
2019-02-09T06:30:14.031Z,9.01
2019-02-09T06:32:44.924Z,9.02
2019-02-09T06:35:16.218Z,9.04
2019-02-09T06:37:47.105Z,9.06
2019-02-09T06:40:18.398Z,9.16
2019-02-09T06:42:49.416Z,9.11
2019-02-09T06:45:22.012Z,9.14
2019-02-09T06:47:52.915Z,9.07
2019-02-09T06:50:26.604Z,9.08
2019-02-09T06:52:57.450Z,9.12
2019-02-09T06:55:28.471Z,9.18
2019-02-09T06:57:59.244Z,9.29
2019-02-09T07:00:30.247Z,9.13
2019-02-09T07:03:01.013Z,9.14
2019-02-09T07:05:32.003Z,9.14
2019-02-09T07:08:02.986Z,9.12
2019-02-09T07:10:33.984Z,9.28
2019-02-09T07:13:05.138Z,9.27
2019-02-09T07:15:36.379Z,9.23
2019-02-09T07:18:07.885Z,9.32
2019-02-09T07:20:38.769Z,9.35
2019-02-09T07:23:09.638Z,9.36
2019-02-09T07:25:40.731Z,9.38
2019-02-09T07:28:11.615Z,9.42
2019-02-09T07:30:42.817Z,9.30
2019-02-09T07:33:13.959Z,9.38
2019-02-09T07:35:44.955Z,9.36
2019-02-09T07:38:15.890Z,9.42
2019-02-09T07:40:46.933Z,9.47
2019-02-09T07:43:17.882Z,9.39
2019-02-09T07:45:48.884Z,9.45
2019-02-09T07:48:19.868Z,9.46
2019-02-09T07:50:50.863Z,9.53
2019-02-09T07:53:21.614Z,9.50
2019-02-09T07:55:52.607Z,9.41
2019-02-09T07:58:23.517Z,9.48
2019-02-09T08:00:54.609Z,9.48
2019-02-09T08:03:25.572Z,9.54
2019-02-09T08:05:56.656Z,9.53
2019-02-09T08:08:27.576Z,9.49
2019-02-09T08:10:58.578Z,9.58
2019-02-09T08:13:29.249Z,9.57
2019-02-09T08:16:00.224Z,9.48
2019-02-09T08:18:31.008Z,9.53
2019-02-09T08:21:02.198Z,9.52
2019-02-09T08:23:33.001Z,9.61
2019-02-09T08:26:04.066Z,9.69
2019-02-09T08:28:34.968Z,9.73
2019-02-09T08:31:06.483Z,9.75
2019-02-09T08:33:37.359Z,9.85
2019-02-09T08:36:08.467Z,9.81
2019-02-09T08:38:39.339Z,9.94
2019-02-09T08:41:10.790Z,9.93
2019-02-09T08:43:41.820Z,9.93
2019-02-09T08:46:12.813Z,9.90
2019-02-09T08:48:43.601Z,10.01
2019-02-09T08:51:15.609Z,10.02
2019-02-09T08:53:47.122Z,10.01
2019-02-09T08:56:18.119Z,10.07
2019-02-09T08:58:48.993Z,10.05
2019-02-09T09:01:20.384Z,10.05
2019-02-09T09:03:51.202Z,10.08
2019-02-09T09:06:22.179Z,10.08
2019-02-09T09:08:53.082Z,10.17
2019-02-09T09:11:23.974Z,10.17
2019-02-09T09:13:54.829Z,10.17
2019-02-09T09:16:26.115Z,10.21
2019-02-09T09:18:56.934Z,10.10
2019-02-09T09:21:27.830Z,10.05
2019-02-09T09:23:58.653Z,10.09
2019-02-09T09:26:29.758Z,10.05
2019-02-09T09:29:00.766Z,10.02
2019-02-09T09:31:31.874Z,9.84
2019-02-09T09:34:02.872Z,9.86
2019-02-09T09:36:33.948Z,9.88
2019-02-09T09:39:07.203Z,9.89
2019-02-09T09:41:38.190Z,9.92
2019-02-09T09:44:09.165Z,10.01
2019-02-09T09:46:41.179Z,10.13
2019-02-09T09:49:11.990Z,10.27
2019-02-09T09:51:42.973Z,10.47
2019-02-09T09:54:13.744Z,10.43
2019-02-09T09:56:45.028Z,10.49
2019-02-09T09:59:16.044Z,10.47
2019-02-09T10:01:46.935Z,10.45
2019-02-09T10:04:17.723Z,10.49
2019-02-09T10:06:48.696Z,10.58
2019-02-09T10:09:19.485Z,10.65
2019-02-09T10:11:52.208Z,10.70
2019-02-09T10:14:23.281Z,10.73
2019-02-09T10:16:54.215Z,10.76
2019-02-09T10:19:24.991Z,10.86
2019-02-09T10:21:56.066Z,11.05
2019-02-09T10:24:27.994Z,10.97
2019-02-09T10:26:59.386Z,10.89
2019-02-09T10:29:30.169Z,10.92
2019-02-09T10:32:01.055Z,11.09
2019-02-09T10:34:31.943Z,11.00
2019-02-09T10:37:02.850Z,11.03
2019-02-09T10:39:33.833Z,11.01
2019-02-09T10:42:05.298Z,11.06
2019-02-09T10:44:36.205Z,11.12
2019-02-09T10:47:07.221Z,11.08
2019-02-09T10:49:38.354Z,11.18
2019-02-09T10:52:09.199Z,11.25
2019-02-09T10:54:39.973Z,11.46
2019-02-09T10:57:10.979Z,11.46
2019-02-09T10:59:41.936Z,11.46
2019-02-09T11:02:13.034Z,11.54
2019-02-09T11:04:44.130Z,11.72
2019-02-09T11:07:15.219Z,11.79
2019-02-09T11:09:46.103Z,11.77
2019-02-09T11:12:17.395Z,11.64
2019-02-09T11:14:48.199Z,11.67
2019-02-09T11:17:19.194Z,11.46
2019-02-09T11:19:49.970Z,11.53
2019-02-09T11:22:20.766Z,11.51
2019-02-09T11:24:53.354Z,11.47
2019-02-09T11:27:24.314Z,11.41
2019-02-09T11:29:55.242Z,11.33
2019-02-09T11:32:26.152Z,11.36
2019-02-09T11:34:57.046Z,11.39
2019-02-09T11:37:28.032Z,11.33
2019-02-09T11:39:58.828Z,11.36
2019-02-09T11:42:29.822Z,11.37
2019-02-09T11:45:00.823Z,11.49
2019-02-09T11:47:33.220Z,11.66
2019-02-09T11:50:04.496Z,11.68
2019-02-09T11:52:35.502Z,11.72
2019-02-09T11:55:07.405Z,11.74
2019-02-09T11:57:38.484Z,11.88
2019-02-09T12:00:23.323Z,11.98
2019-02-09T12:03:02.125Z,12.14
2019-02-09T12:05:27.157Z,12.34
2019-02-09T12:07:58.212Z,12.48
2019-02-09T12:10:29.300Z,12.48
2019-02-09T12:13:00.205Z,12.42
2019-02-09T12:15:32.780Z,12.59
2019-02-09T12:18:03.966Z,12.55
2019-02-09T12:20:35.316Z,12.63
2019-02-09T12:23:06.695Z,12.38
2019-02-09T12:25:38.071Z,12.39
2019-02-09T12:28:09.514Z,12.30
2019-02-09T12:30:40.325Z,12.07
2019-02-09T12:33:11.627Z,12.01
2019-02-09T12:35:43.924Z,11.97
2019-02-09T12:38:15.071Z,11.99
2019-02-09T12:40:46.061Z,12.00
2019-02-09T12:43:16.858Z,12.12
2019-02-09T12:45:48.043Z,12.14
2019-02-09T12:48:18.922Z,12.06
2019-02-09T12:50:49.990Z,12.02
2019-02-09T12:53:20.813Z,12.01
2019-02-09T12:55:51.799Z,12.09
2019-02-09T12:58:22.681Z,12.19
2019-02-09T13:00:53.580Z,12.26
2019-02-09T13:03:31.339Z,12.18
2019-02-09T13:05:58.653Z,12.20
2019-02-09T13:08:29.522Z,12.24
2019-02-09T13:11:00.422Z,12.30
2019-02-09T13:13:31.284Z,12.32
2019-02-09T13:16:02.556Z,12.27
2019-02-09T13:18:33.364Z,12.41
2019-02-09T13:21:04.650Z,12.57
2019-02-09T13:23:35.453Z,12.60
2019-02-09T13:26:08.085Z,12.48
2019-02-09T13:28:38.960Z,12.46
2019-02-09T13:31:09.966Z,12.30
2019-02-09T13:33:40.749Z,12.31
2019-02-09T13:36:11.623Z,12.26
2019-02-09T13:38:42.506Z,12.30
2019-02-09T13:41:13.489Z,12.26
2019-02-09T13:43:44.406Z,12.27
2019-02-09T13:46:15.392Z,12.29
2019-02-09T13:48:46.273Z,12.31
2019-02-09T13:51:18.078Z,12.27
2019-02-09T13:53:48.955Z,12.28
2019-02-09T13:56:20.367Z,12.36
2019-02-09T13:58:51.265Z,12.29
2019-02-09T14:01:22.341Z,12.28
2019-02-09T14:03:53.236Z,12.18
2019-02-09T14:06:24.223Z,12.28
2019-02-09T14:08:55.012Z,12.35
2019-02-09T14:11:26.009Z,12.27
2019-02-09T14:13:56.902Z,12.31
2019-02-09T14:16:28.922Z,12.25
2019-02-09T14:18:59.878Z,12.19
2019-02-09T14:21:30.694Z,12.16
2019-02-09T14:24:01.450Z,12.22
2019-02-09T14:26:32.442Z,12.26
2019-02-09T14:29:03.349Z,12.20
2019-02-09T14:31:34.342Z,12.20
2019-02-09T14:34:05.321Z,12.24
2019-02-09T14:36:36.315Z,12.15
2019-02-09T14:39:13.341Z,12.05
2019-02-09T14:41:44.354Z,12.03
2019-02-09T14:44:15.305Z,11.93
2019-02-09T14:46:46.311Z,11.90
2019-02-09T14:49:17.474Z,11.86
2019-02-09T14:51:48.286Z,11.80
2019-02-09T14:54:19.339Z,11.77
2019-02-09T14:56:50.212Z,11.79
2019-02-09T14:59:21.093Z,11.74
2019-02-09T15:01:51.992Z,11.76
2019-02-09T15:04:22.994Z,11.67
2019-02-09T15:06:53.874Z,11.61
2019-02-09T15:09:24.940Z,11.60
2019-02-09T15:11:55.847Z,11.57
2019-02-09T15:14:26.730Z,11.55
2019-02-09T15:17:05.320Z,11.57
2019-02-09T15:19:41.030Z,11.54
2019-02-09T15:22:12.704Z,11.50
2019-02-09T15:24:43.957Z,11.56
2019-02-09T15:27:14.782Z,11.51
2019-02-09T15:29:46.068Z,11.47
2019-02-09T15:32:16.882Z,11.35
2019-02-09T15:34:47.880Z,11.27
2019-02-09T15:37:18.645Z,11.25
2019-02-09T15:39:49.538Z,11.18
2019-02-09T15:42:20.421Z,11.12
2019-02-09T15:44:51.335Z,11.06
2019-02-09T15:47:22.210Z,11.04
2019-02-09T15:49:53.042Z,11.02
2019-02-09T15:52:24.073Z,10.97
2019-02-09T15:54:54.813Z,10.93
2019-02-09T15:57:25.685Z,10.89
2019-02-09T15:59:58.222Z,10.87
2019-02-09T16:02:29.230Z,10.82
2019-02-09T16:05:00.193Z,10.83
2019-02-09T16:07:31.076Z,10.78
2019-02-09T16:10:01.862Z,10.71
2019-02-09T16:12:33.257Z,10.72
2019-02-09T16:15:04.472Z,10.71
2019-02-09T16:17:35.550Z,10.67
2019-02-09T16:20:07.279Z,10.58
2019-02-09T16:22:38.284Z,10.61
2019-02-09T16:25:09.454Z,10.56
2019-02-09T16:27:40.443Z,10.51
2019-02-09T16:30:18.519Z,10.45
2019-02-09T16:32:46.976Z,10.39
2019-02-09T16:35:19.207Z,10.37
2019-02-09T16:37:50.046Z,10.32
2019-02-09T16:40:22.573Z,10.29
2019-02-09T16:42:53.655Z,10.24
2019-02-09T16:45:32.015Z,10.20
2019-02-09T16:48:03.030Z,10.17
2019-02-09T16:50:34.106Z,10.13
2019-02-09T16:53:05.478Z,10.13
2019-02-09T16:55:36.498Z,10.11
2019-02-09T16:58:07.794Z,10.07
2019-02-09T17:00:40.015Z,10.05
2019-02-09T17:03:11.789Z,10.02
2019-02-09T17:05:42.891Z,9.86
2019-02-09T17:08:15.017Z,9.85
2019-02-09T17:10:45.920Z,9.90
2019-02-09T17:13:16.991Z,9.81
2019-02-09T17:15:47.874Z,9.77
2019-02-09T17:18:19.286Z,9.77
2019-02-09T17:20:50.077Z,9.77
2019-02-09T17:23:21.273Z,9.77
2019-02-09T17:25:52.057Z,9.79
2019-02-09T17:28:23.067Z,9.72
2019-02-09T17:30:53.932Z,9.65
2019-02-09T17:33:24.934Z,9.75
2019-02-09T17:35:55.792Z,9.78
2019-02-09T17:38:27.073Z,9.72
2019-02-09T17:40:57.997Z,9.68
2019-02-09T17:43:29.248Z,9.57
2019-02-09T17:46:04.278Z,9.45
2019-02-09T17:48:35.342Z,9.30
2019-02-09T17:51:06.238Z,9.23
2019-02-09T17:53:37.978Z,8.94
2019-02-09T17:56:08.941Z,8.92
2019-02-09T17:58:39.999Z,8.79
2019-02-09T18:01:12.866Z,8.75
2019-02-09T18:03:43.952Z,8.79
2019-02-09T18:06:14.737Z,8.77
2019-02-09T18:08:45.731Z,8.66
2019-02-09T18:11:16.636Z,8.57
2019-02-09T18:13:47.532Z,8.52
2019-02-09T18:16:18.338Z,8.54
2019-02-09T18:18:49.290Z,8.49
2019-02-09T18:21:20.162Z,8.48
2019-02-09T18:23:51.676Z,8.45
2019-02-09T18:26:22.573Z,8.38
2019-02-09T18:28:53.826Z,8.30
2019-02-09T18:31:24.758Z,8.31
2019-02-09T18:33:55.750Z,8.24
2019-02-09T18:36:26.539Z,8.21
2019-02-09T18:38:58.536Z,8.15
2019-02-09T18:41:29.315Z,8.11
2019-02-09T18:44:00.401Z,8.13
2019-02-09T18:46:31.317Z,8.06
2019-02-09T18:49:03.297Z,8.03
2019-02-09T18:51:34.203Z,7.96
2019-02-09T18:54:06.308Z,7.93
2019-02-09T18:56:38.234Z,7.91
2019-02-09T18:59:09.118Z,7.86
2019-02-09T19:01:40.108Z,7.88
2019-02-09T19:04:11.386Z,7.84
2019-02-09T19:06:42.405Z,7.85
2019-02-09T19:09:13.378Z,7.88
2019-02-09T19:11:44.161Z,7.94
2019-02-09T19:14:15.159Z,7.94
2019-02-09T19:16:46.054Z,8.01
2019-02-09T19:19:17.046Z,8.06
2019-02-09T19:21:50.835Z,8.17
2019-02-09T19:24:21.699Z,8.23
2019-02-09T19:26:52.575Z,8.26
2019-02-09T19:29:23.559Z,8.32
2019-02-09T19:31:54.341Z,8.51
2019-02-09T19:34:25.215Z,8.61
2019-02-09T19:36:56.127Z,8.69
2019-02-09T19:39:27.122Z,8.78
2019-02-09T19:41:58.004Z,8.82
2019-02-09T19:44:28.985Z,8.89
2019-02-09T19:46:59.664Z,8.91
2019-02-09T19:49:30.544Z,8.91
2019-02-09T19:52:01.542Z,8.99
2019-02-09T19:54:32.621Z,8.95
2019-02-09T19:57:03.642Z,8.85
2019-02-09T19:59:34.816Z,8.96
2019-02-09T20:02:05.700Z,8.99
2019-02-09T20:04:37.381Z,8.98
2019-02-09T20:07:08.195Z,8.95
2019-02-09T20:09:39.081Z,8.97
2019-02-09T20:12:09.882Z,9.05
2019-02-09T20:14:40.791Z,9.05
2019-02-09T20:17:11.655Z,8.98
2019-02-09T20:19:43.792Z,9.00
2019-02-09T20:22:14.609Z,9.01
2019-02-09T20:24:45.473Z,8.91
2019-02-09T20:27:16.813Z,8.90
2019-02-09T20:29:47.825Z,8.89
2019-02-09T20:32:18.805Z,8.99
2019-02-09T20:34:49.784Z,8.98
2019-02-09T20:37:20.684Z,8.95
2019-02-09T20:39:51.597Z,8.94
2019-02-09T20:42:22.373Z,9.08
2019-02-09T20:44:54.484Z,9.16
2019-02-09T20:47:25.369Z,9.22
2019-02-09T20:49:56.454Z,9.21
2019-02-09T20:52:27.361Z,9.20
2019-02-09T20:54:58.337Z,9.13
2019-02-09T20:57:29.337Z,9.17
2019-02-09T21:00:00.395Z,9.18
2019-02-09T21:02:31.411Z,9.18
2019-02-09T21:05:02.511Z,9.21
2019-02-09T21:07:33.294Z,9.11
2019-02-09T21:10:05.190Z,9.16
2019-02-09T21:12:35.989Z,9.14
2019-02-09T21:15:08.268Z,9.10
2019-02-09T21:17:39.196Z,9.06
2019-02-09T21:20:10.618Z,9.04
2019-02-09T21:22:41.468Z,9.03
2019-02-09T21:25:15.813Z,8.91
2019-02-09T21:27:46.745Z,8.94
2019-02-09T21:30:19.165Z,8.98
2019-02-09T21:32:50.435Z,9.17
2019-02-09T21:35:22.677Z,9.43
2019-02-09T21:37:54.397Z,9.40
2019-02-09T21:40:26.439Z,9.31
2019-02-09T21:42:57.289Z,9.20
2019-02-09T21:45:28.721Z,9.02
2019-02-09T21:47:59.578Z,8.96
2019-02-09T21:50:32.519Z,8.88
2019-02-09T21:53:03.495Z,8.86
2019-02-09T21:55:34.685Z,8.79
2019-02-09T21:58:06.690Z,8.65
2019-02-09T22:00:41.860Z,8.75
2019-02-09T22:03:13.496Z,8.88
2019-02-09T22:05:51.483Z,8.94
2019-02-09T22:08:19.569Z,8.95
2019-02-09T22:10:50.204Z,8.95
2019-02-09T22:13:21.150Z,8.90
2019-02-09T22:15:52.051Z,8.95
2019-02-09T22:18:22.962Z,9.14
2019-02-09T22:20:53.794Z,9.19
2019-02-09T22:23:24.584Z,9.16
2019-02-09T22:25:55.740Z,9.25
2019-02-09T22:28:26.573Z,9.21
2019-02-09T22:30:57.693Z,9.17
2019-02-09T22:33:28.641Z,9.07
2019-02-09T22:36:00.288Z,9.17
2019-02-09T22:38:31.236Z,9.20
2019-02-09T22:41:02.284Z,9.24
2019-02-09T22:43:33.128Z,9.19
2019-02-09T22:46:04.130Z,9.19
2019-02-09T22:48:35.004Z,9.11
2019-02-09T22:51:06.188Z,9.04
2019-02-09T22:53:37.072Z,8.91
2019-02-09T22:56:08.065Z,8.78
2019-02-09T22:58:39.076Z,8.81
2019-02-09T23:01:40.402Z,8.84
2019-02-09T23:04:48.116Z,8.90
2019-02-09T23:07:25.299Z,8.94
2019-02-09T23:09:57.030Z,8.93
2019-02-09T23:12:27.948Z,8.94
2019-02-09T23:14:58.817Z,8.94
2019-02-09T23:17:29.718Z,8.91
2019-02-09T23:20:00.512Z,9.05
2019-02-09T23:22:31.875Z,9.11
2019-02-09T23:25:02.682Z,9.19
2019-02-09T23:27:34.035Z,9.23
2019-02-09T23:30:25.968Z,9.14
2019-02-09T23:32:56.971Z,9.07
2019-02-09T23:35:27.835Z,9.17
2019-02-09T23:37:58.828Z,9.22
2019-02-09T23:40:29.508Z,9.18
2019-02-09T23:43:00.429Z,9.30
2019-02-09T23:45:31.289Z,9.36
2019-02-09T23:48:02.287Z,9.35
2019-02-09T23:50:33.181Z,9.43
2019-02-09T23:53:04.542Z,9.43
2019-02-09T23:55:35.347Z,9.43
2019-02-09T23:58:06.393Z,9.48
